sensor_id;sensor_type;location;lat;lon;timestamp;P1;P2;P0
62591;PMS5003;48659;41.622;2.276;2023-02-22T00:00:53;93;87;
62591;PMS5003;48659;41.622;2.276;2023-02-22T00:03:21;95;84;
62591;PMS5003;48659;41.622;2.276;2023-02-22T00:05:52;98;84;
62591;PMS5003;48659;41.622;2.276;2023-02-22T00:08:22;98;88;
62591;PMS5003;48659;41.622;2.276;2023-02-22T00:10:50;94;87;
62591;PMS5003;48659;41.622;2.276;2023-02-22T00:13:18;95;88;
62591;PMS5003;48659;41.622;2.276;2023-02-22T00:15:46;95;87;
62591;PMS5003;48659;41.622;2.276;2023-02-22T00:18:15;86;80;
62591;PMS5003;48659;41.622;2.276;2023-02-22T00:20:44;91;85;
62591;PMS5003;48659;41.622;2.276;2023-02-22T00:23:13;93;89;
62591;PMS5003;48659;41.622;2.276;2023-02-22T00:25:41;91;86;
62591;PMS5003;48659;41.622;2.276;2023-02-22T00:28:09;100;88;
62591;PMS5003;48659;41.622;2.276;2023-02-22T00:30:38;98;91;
62591;PMS5003;48659;41.622;2.276;2023-02-22T00:33:05;99;93;
62591;PMS5003;48659;41.622;2.276;2023-02-22T00:35:32;94;89;
62591;PMS5003;48659;41.622;2.276;2023-02-22T00:37:59;93;89;
62591;PMS5003;48659;41.622;2.276;2023-02-22T00:40:29;92;87;
62591;PMS5003;48659;41.622;2.276;2023-02-22T00:42:59;90;84;
62591;PMS5003;48659;41.622;2.276;2023-02-22T00:45:29;95;89;
62591;PMS5003;48659;41.622;2.276;2023-02-22T00:47:58;97;91;
62591;PMS5003;48659;41.622;2.276;2023-02-22T00:50:28;95;86;
62591;PMS5003;48659;41.622;2.276;2023-02-22T00:52:58;102;90;
62591;PMS5003;48659;41.622;2.276;2023-02-22T00:55:29;94;85;
62591;PMS5003;48659;41.622;2.276;2023-02-22T00:57:59;100;91;
62591;PMS5003;48659;41.622;2.276;2023-02-22T01:00:29;87;80;
62591;PMS5003;48659;41.622;2.276;2023-02-22T01:02:59;87;80;
62591;PMS5003;48659;41.622;2.276;2023-02-22T01:05:28;83;77;
62591;PMS5003;48659;41.622;2.276;2023-02-22T01:07:57;94;87;
62591;PMS5003;48659;41.622;2.276;2023-02-22T01:10:26;101;94;
62591;PMS5003;48659;41.622;2.276;2023-02-22T01:12:56;98;85;
62591;PMS5003;48659;41.622;2.276;2023-02-22T01:15:27;103;87;
62591;PMS5003;48659;41.622;2.276;2023-02-22T01:17:56;99;88;
62591;PMS5003;48659;41.622;2.276;2023-02-22T01:20:25;93;85;
62591;PMS5003;48659;41.622;2.276;2023-02-22T01:22:55;102;95;
62591;PMS5003;48659;41.622;2.276;2023-02-22T01:25:25;88;81;
62591;PMS5003;48659;41.622;2.276;2023-02-22T01:27:57;97;88;
62591;PMS5003;48659;41.622;2.276;2023-02-22T01:30:31;99;89;
62591;PMS5003;48659;41.622;2.276;2023-02-22T01:33:01;100;89;
62591;PMS5003;48659;41.622;2.276;2023-02-22T01:35:31;103;91;
62591;PMS5003;48659;41.622;2.276;2023-02-22T01:38:00;97;87;
62591;PMS5003;48659;41.622;2.276;2023-02-22T01:40:29;95;89;
62591;PMS5003;48659;41.622;2.276;2023-02-22T01:43:01;100;88;
62591;PMS5003;48659;41.622;2.276;2023-02-22T01:45:49;116;96;
62591;PMS5003;48659;41.622;2.276;2023-02-22T01:48:24;108;97;
62591;PMS5003;48659;41.622;2.276;2023-02-22T01:50:56;95;86;
62591;PMS5003;48659;41.622;2.276;2023-02-22T01:53:27;98;92;
62591;PMS5003;48659;41.622;2.276;2023-02-22T01:55:58;95;83;
62591;PMS5003;48659;41.622;2.276;2023-02-22T01:58:28;102;94;
62591;PMS5003;48659;41.622;2.276;2023-02-22T02:00:59;105;91;
62591;PMS5003;48659;41.622;2.276;2023-02-22T02:03:37;106;96;
62591;PMS5003;48659;41.622;2.276;2023-02-22T02:06:09;102;92;
62591;PMS5003;48659;41.622;2.276;2023-02-22T02:08:41;96;87;
62591;PMS5003;48659;41.622;2.276;2023-02-22T02:11:17;97;89;
62591;PMS5003;48659;41.622;2.276;2023-02-22T02:13:48;99;92;
62591;PMS5003;48659;41.622;2.276;2023-02-22T02:16:16;96;89;
62591;PMS5003;48659;41.622;2.276;2023-02-22T02:18:44;98;89;
62591;PMS5003;48659;41.622;2.276;2023-02-22T02:23:33;93;85;
62591;PMS5003;48659;41.622;2.276;2023-02-22T02:27:22;106;98;
62591;PMS5003;48659;41.622;2.276;2023-02-22T02:29:58;93;86;
62591;PMS5003;48659;41.622;2.276;2023-02-22T02:32:20;93;86;
62591;PMS5003;48659;41.622;2.276;2023-02-22T02:34:57;93;83;
62591;PMS5003;48659;41.622;2.276;2023-02-22T02:37:35;105;93;
62591;PMS5003;48659;41.622;2.276;2023-02-22T02:40:16;91;83;
62591;PMS5003;48659;41.622;2.276;2023-02-22T02:42:50;100;88;
62591;PMS5003;48659;41.622;2.276;2023-02-22T02:45:25;98;91;
62591;PMS5003;48659;41.622;2.276;2023-02-22T02:45:34;104;94;
62591;PMS5003;48659;41.622;2.276;2023-02-22T02:48:10;97;88;
62591;PMS5003;48659;41.622;2.276;2023-02-22T02:50:40;99;93;
62591;PMS5003;48659;41.622;2.276;2023-02-22T02:53:10;90;83;
62591;PMS5003;48659;41.622;2.276;2023-02-22T02:55:42;96;89;
62591;PMS5003;48659;41.622;2.276;2023-02-22T02:58:15;92;83;
62591;PMS5003;48659;41.622;2.276;2023-02-22T03:00:44;95;87;
62591;PMS5003;48659;41.622;2.276;2023-02-22T03:03:19;82;79;
62591;PMS5003;48659;41.622;2.276;2023-02-22T03:06:04;93;89;
62591;PMS5003;48659;41.622;2.276;2023-02-22T03:08:44;96;83;
62591;PMS5003;48659;41.622;2.276;2023-02-22T03:11:19;85;80;
62591;PMS5003;48659;41.622;2.276;2023-02-22T03:13:52;88;83;
62591;PMS5003;48659;41.622;2.276;2023-02-22T03:16:37;102;89;
62591;PMS5003;48659;41.622;2.276;2023-02-22T03:19:11;99;89;
62591;PMS5003;48659;41.622;2.276;2023-02-22T03:21:48;95;87;
62591;PMS5003;48659;41.622;2.276;2023-02-22T03:24:22;78;75;
62591;PMS5003;48659;41.622;2.276;2023-02-22T03:27:07;86;76;
62591;PMS5003;48659;41.622;2.276;2023-02-22T03:29:41;88;83;
62591;PMS5003;48659;41.622;2.276;2023-02-22T03:32:11;84;78;
62591;PMS5003;48659;41.622;2.276;2023-02-22T03:34:48;80;71;
62591;PMS5003;48659;41.622;2.276;2023-02-22T03:37:26;86;75;
62591;PMS5003;48659;41.622;2.276;2023-02-22T03:40:10;77;72;
62591;PMS5003;48659;41.622;2.276;2023-02-22T03:42:44;74;65;
62591;PMS5003;48659;41.622;2.276;2023-02-22T03:45:14;74;69;
62591;PMS5003;48659;41.622;2.276;2023-02-22T03:47:46;76;70;
62591;PMS5003;48659;41.622;2.276;2023-02-22T03:50:17;66;62;
62591;PMS5003;48659;41.622;2.276;2023-02-22T03:52:48;81;71;
62591;PMS5003;48659;41.622;2.276;2023-02-22T03:55:15;72;62;
62591;PMS5003;48659;41.622;2.276;2023-02-22T03:57:44;68;64;
62591;PMS5003;48659;41.622;2.276;2023-02-22T04:00:16;67;62;
62591;PMS5003;48659;41.622;2.276;2023-02-22T04:02:49;72;69;
62591;PMS5003;48659;41.622;2.276;2023-02-22T04:05:17;71;67;
62591;PMS5003;48659;41.622;2.276;2023-02-22T04:07:50;79;66;
62591;PMS5003;48659;41.622;2.276;2023-02-22T04:10:19;73;65;
62591;PMS5003;48659;41.622;2.276;2023-02-22T04:12:47;72;67;
62591;PMS5003;48659;41.622;2.276;2023-02-22T04:15:15;66;60;
62591;PMS5003;48659;41.622;2.276;2023-02-22T04:17:44;68;62;
62591;PMS5003;48659;41.622;2.276;2023-02-22T04:20:12;66;60;
62591;PMS5003;48659;41.622;2.276;2023-02-22T04:22:47;62;58;
62591;PMS5003;48659;41.622;2.276;2023-02-22T04:25:14;58;57;
62591;PMS5003;48659;41.622;2.276;2023-02-22T04:27:41;72;63;
62591;PMS5003;48659;41.622;2.276;2023-02-22T04:30:10;72;64;
62591;PMS5003;48659;41.622;2.276;2023-02-22T04:32:39;70;66;
62591;PMS5003;48659;41.622;2.276;2023-02-22T04:35:07;62;58;
62591;PMS5003;48659;41.622;2.276;2023-02-22T04:37:34;69;58;
62591;PMS5003;48659;41.622;2.276;2023-02-22T04:40:02;69;60;
62591;PMS5003;48659;41.622;2.276;2023-02-22T04:42:31;62;58;
62591;PMS5003;48659;41.622;2.276;2023-02-22T04:44:58;68;60;
62591;PMS5003;48659;41.622;2.276;2023-02-22T04:47:25;69;61;
62591;PMS5003;48659;41.622;2.276;2023-02-22T04:49:59;62;58;
62591;PMS5003;48659;41.622;2.276;2023-02-22T04:52:28;70;68;
62591;PMS5003;48659;41.622;2.276;2023-02-22T04:54:55;73;64;
62591;PMS5003;48659;41.622;2.276;2023-02-22T04:57:23;64;60;
62591;PMS5003;48659;41.622;2.276;2023-02-22T04:59:51;68;63;
62591;PMS5003;48659;41.622;2.276;2023-02-22T05:02:19;59;53;
62591;PMS5003;48659;41.622;2.276;2023-02-22T05:04:46;61;57;
62591;PMS5003;48659;41.622;2.276;2023-02-22T05:07:13;58;52;
62591;PMS5003;48659;41.622;2.276;2023-02-22T05:09:41;64;57;
62591;PMS5003;48659;41.622;2.276;2023-02-22T05:12:08;72;58;
62591;PMS5003;48659;41.622;2.276;2023-02-22T05:14:35;63;59;
62591;PMS5003;48659;41.622;2.276;2023-02-22T05:17:02;61;59;
62591;PMS5003;48659;41.622;2.276;2023-02-22T05:19:36;56;52;
62591;PMS5003;48659;41.622;2.276;2023-02-22T05:22:03;59;57;
62591;PMS5003;48659;41.622;2.276;2023-02-22T05:24:31;63;59;
62591;PMS5003;48659;41.622;2.276;2023-02-22T05:26:58;62;52;
62591;PMS5003;48659;41.622;2.276;2023-02-22T05:29:25;59;53;
62591;PMS5003;48659;41.622;2.276;2023-02-22T05:31:53;57;51;
62591;PMS5003;48659;41.622;2.276;2023-02-22T05:34:20;60;54;
62591;PMS5003;48659;41.622;2.276;2023-02-22T05:36:48;50;48;
62591;PMS5003;48659;41.622;2.276;2023-02-22T05:39:15;64;55;
62591;PMS5003;48659;41.622;2.276;2023-02-22T05:41:49;62;59;
62591;PMS5003;48659;41.622;2.276;2023-02-22T05:44:16;72;64;
62591;PMS5003;48659;41.622;2.276;2023-02-22T05:46:44;74;67;
62591;PMS5003;48659;41.622;2.276;2023-02-22T05:49:11;68;59;
62591;PMS5003;48659;41.622;2.276;2023-02-22T05:51:39;59;57;
62591;PMS5003;48659;41.622;2.276;2023-02-22T05:54:06;63;57;
62591;PMS5003;48659;41.622;2.276;2023-02-22T05:56:34;58;53;
62591;PMS5003;48659;41.622;2.276;2023-02-22T05:59:01;68;59;
62591;PMS5003;48659;41.622;2.276;2023-02-22T06:01:29;52;49;
62591;PMS5003;48659;41.622;2.276;2023-02-22T06:03:57;60;50;
62591;PMS5003;48659;41.622;2.276;2023-02-22T06:06:24;68;59;
62591;PMS5003;48659;41.622;2.276;2023-02-22T06:08:52;53;46;
62591;PMS5003;48659;41.622;2.276;2023-02-22T06:11:19;58;49;
62591;PMS5003;48659;41.622;2.276;2023-02-22T06:13:50;57;52;
62591;PMS5003;48659;41.622;2.276;2023-02-22T06:16:18;58;51;
62591;PMS5003;48659;41.622;2.276;2023-02-22T06:18:47;67;59;
62591;PMS5003;48659;41.622;2.276;2023-02-22T06:21:15;58;54;
62591;PMS5003;48659;41.622;2.276;2023-02-22T06:23:42;57;52;
62591;PMS5003;48659;41.622;2.276;2023-02-22T06:26:10;61;53;
62591;PMS5003;48659;41.622;2.276;2023-02-22T06:28:37;57;53;
62591;PMS5003;48659;41.622;2.276;2023-02-22T06:31:05;61;51;
62591;PMS5003;48659;41.622;2.276;2023-02-22T06:33:35;65;55;
62591;PMS5003;48659;41.622;2.276;2023-02-22T06:36:03;64;57;
62591;PMS5003;48659;41.622;2.276;2023-02-22T06:38:58;52;45;
62591;PMS5003;48659;41.622;2.276;2023-02-22T06:41:53;56;51;
62591;PMS5003;48659;41.622;2.276;2023-02-22T06:44:21;59;54;
62591;PMS5003;48659;41.622;2.276;2023-02-22T06:46:49;60;58;
62591;PMS5003;48659;41.622;2.276;2023-02-22T06:49:17;59;55;
62591;PMS5003;48659;41.622;2.276;2023-02-22T06:51:46;52;47;
62591;PMS5003;48659;41.622;2.276;2023-02-22T06:54:13;59;58;
62591;PMS5003;48659;41.622;2.276;2023-02-22T06:56:41;69;58;
62591;PMS5003;48659;41.622;2.276;2023-02-22T06:59:09;66;59;
62591;PMS5003;48659;41.622;2.276;2023-02-22T07:01:39;61;57;
62591;PMS5003;48659;41.622;2.276;2023-02-22T07:04:07;74;67;
62591;PMS5003;48659;41.622;2.276;2023-02-22T07:06:38;70;63;
62591;PMS5003;48659;41.622;2.276;2023-02-22T07:09:10;64;57;
62591;PMS5003;48659;41.622;2.276;2023-02-22T07:11:39;55;51;
62591;PMS5003;48659;41.622;2.276;2023-02-22T07:14:06;67;61;
62591;PMS5003;48659;41.622;2.276;2023-02-22T07:16:38;78;69;
62591;PMS5003;48659;41.622;2.276;2023-02-22T07:19:06;109;93;
62591;PMS5003;48659;41.622;2.276;2023-02-22T07:21:33;151;134;
62591;PMS5003;48659;41.622;2.276;2023-02-22T07:24:00;94;89;
62591;PMS5003;48659;41.622;2.276;2023-02-22T07:26:27;96;93;
62591;PMS5003;48659;41.622;2.276;2023-02-22T07:28:55;97;80;
62591;PMS5003;48659;41.622;2.276;2023-02-22T07:31:22;89;74;
62591;PMS5003;48659;41.622;2.276;2023-02-22T07:33:50;71;69;
62591;PMS5003;48659;41.622;2.276;2023-02-22T07:36:17;75;67;
62591;PMS5003;48659;41.622;2.276;2023-02-22T07:38:45;84;72;
62591;PMS5003;48659;41.622;2.276;2023-02-22T07:41:12;80;76;
62591;PMS5003;48659;41.622;2.276;2023-02-22T07:43:40;93;79;
62591;PMS5003;48659;41.622;2.276;2023-02-22T07:46:09;86;80;
62591;PMS5003;48659;41.622;2.276;2023-02-22T07:48:37;91;87;
62591;PMS5003;48659;41.622;2.276;2023-02-22T07:51:04;95;85;
62591;PMS5003;48659;41.622;2.276;2023-02-22T07:53:32;89;78;
62591;PMS5003;48659;41.622;2.276;2023-02-22T07:56:00;98;84;
62591;PMS5003;48659;41.622;2.276;2023-02-22T07:58:29;78;71;
62591;PMS5003;48659;41.622;2.276;2023-02-22T08:00:58;73;69;
62591;PMS5003;48659;41.622;2.276;2023-02-22T08:03:25;82;72;
62591;PMS5003;48659;41.622;2.276;2023-02-22T08:05:56;92;83;
62591;PMS5003;48659;41.622;2.276;2023-02-22T08:08:23;81;71;
62591;PMS5003;48659;41.622;2.276;2023-02-22T08:10:51;87;72;
62591;PMS5003;48659;41.622;2.276;2023-02-22T08:13:19;81;73;
62591;PMS5003;48659;41.622;2.276;2023-02-22T08:15:49;83;75;
62591;PMS5003;48659;41.622;2.276;2023-02-22T08:18:18;72;68;
62591;PMS5003;48659;41.622;2.276;2023-02-22T08:20:47;81;77;
62591;PMS5003;48659;41.622;2.276;2023-02-22T08:23:16;86;79;
62591;PMS5003;48659;41.622;2.276;2023-02-22T08:25:46;82;78;
62591;PMS5003;48659;41.622;2.276;2023-02-22T08:28:15;79;75;
62591;PMS5003;48659;41.622;2.276;2023-02-22T08:30:44;78;72;
62591;PMS5003;48659;41.622;2.276;2023-02-22T08:33:12;76;71;
62591;PMS5003;48659;41.622;2.276;2023-02-22T08:35:41;79;75;
62591;PMS5003;48659;41.622;2.276;2023-02-22T08:38:14;78;73;
62591;PMS5003;48659;41.622;2.276;2023-02-22T08:40:42;77;71;
62591;PMS5003;48659;41.622;2.276;2023-02-22T08:43:10;69;65;
62591;PMS5003;48659;41.622;2.276;2023-02-22T08:45:38;69;68;
62591;PMS5003;48659;41.622;2.276;2023-02-22T08:48:05;84;76;
62591;PMS5003;48659;41.622;2.276;2023-02-22T08:50:33;79;79;
62591;PMS5003;48659;41.622;2.276;2023-02-22T08:53:02;83;76;
62591;PMS5003;48659;41.622;2.276;2023-02-22T08:55:32;77;70;
62591;PMS5003;48659;41.622;2.276;2023-02-22T08:58:01;80;77;
62591;PMS5003;48659;41.622;2.276;2023-02-22T09:00:30;91;81;
62591;PMS5003;48659;41.622;2.276;2023-02-22T09:02:59;75;71;
62591;PMS5003;48659;41.622;2.276;2023-02-22T09:05:27;73;68;
62591;PMS5003;48659;41.622;2.276;2023-02-22T09:07:56;74;68;
62591;PMS5003;48659;41.622;2.276;2023-02-22T09:10:25;72;70;
62591;PMS5003;48659;41.622;2.276;2023-02-22T09:12:54;65;60;
62591;PMS5003;48659;41.622;2.276;2023-02-22T09:15:22;74;67;
62591;PMS5003;48659;41.622;2.276;2023-02-22T09:17:51;79;73;
62591;PMS5003;48659;41.622;2.276;2023-02-22T09:20:20;81;72;
62591;PMS5003;48659;41.622;2.276;2023-02-22T09:22:50;70;65;
62591;PMS5003;48659;41.622;2.276;2023-02-22T09:25:18;82;73;
62591;PMS5003;48659;41.622;2.276;2023-02-22T09:27:49;77;68;
62591;PMS5003;48659;41.622;2.276;2023-02-22T09:30:21;79;69;
62591;PMS5003;48659;41.622;2.276;2023-02-22T09:32:51;78;73;
62591;PMS5003;48659;41.622;2.276;2023-02-22T09:35:20;74;68;
62591;PMS5003;48659;41.622;2.276;2023-02-22T09:37:49;79;64;
62591;PMS5003;48659;41.622;2.276;2023-02-22T09:40:16;66;64;
62591;PMS5003;48659;41.622;2.276;2023-02-22T09:42:46;68;62;
62591;PMS5003;48659;41.622;2.276;2023-02-22T09:45:19;58;55;
62591;PMS5003;48659;41.622;2.276;2023-02-22T09:47:51;61;51;
62591;PMS5003;48659;41.622;2.276;2023-02-22T09:50:22;47;43;
62591;PMS5003;48659;41.622;2.276;2023-02-22T09:52:55;47;45;
62591;PMS5003;48659;41.622;2.276;2023-02-22T09:55:30;50;47;
62591;PMS5003;48659;41.622;2.276;2023-02-22T09:58:05;59;54;
62591;PMS5003;48659;41.622;2.276;2023-02-22T10:00:39;51;51;
62591;PMS5003;48659;41.622;2.276;2023-02-22T10:03:14;61;55;
62591;PMS5003;48659;41.622;2.276;2023-02-22T10:05:50;60;50;
62591;PMS5003;48659;41.622;2.276;2023-02-22T10:08:26;56;53;
62591;PMS5003;48659;41.622;2.276;2023-02-22T10:11:09;54;51;
62591;PMS5003;48659;41.622;2.276;2023-02-22T10:13:48;63;52;
62591;PMS5003;48659;41.622;2.276;2023-02-22T10:16:24;62;58;
62591;PMS5003;48659;41.622;2.276;2023-02-22T10:19:03;59;53;
62591;PMS5003;48659;41.622;2.276;2023-02-22T10:21:45;60;51;
62591;PMS5003;48659;41.622;2.276;2023-02-22T10:24:26;65;56;
62591;PMS5003;48659;41.622;2.276;2023-02-22T10:27:04;58;54;
62591;PMS5003;48659;41.622;2.276;2023-02-22T10:29:39;62;53;
62591;PMS5003;48659;41.622;2.276;2023-02-22T10:32:10;58;51;
62591;PMS5003;48659;41.622;2.276;2023-02-22T10:34:46;53;49;
62591;PMS5003;48659;41.622;2.276;2023-02-22T10:37:19;73;61;
62591;PMS5003;48659;41.622;2.276;2023-02-22T10:39:52;57;52;
62591;PMS5003;48659;41.622;2.276;2023-02-22T10:42:27;52;49;
62591;PMS5003;48659;41.622;2.276;2023-02-22T10:44:56;56;45;
62591;PMS5003;48659;41.622;2.276;2023-02-22T10:47:24;53;51;
62591;PMS5003;48659;41.622;2.276;2023-02-22T10:49:52;64;52;
62591;PMS5003;48659;41.622;2.276;2023-02-22T10:52:25;59;57;
62591;PMS5003;48659;41.622;2.276;2023-02-22T10:54:55;57;51;
62591;PMS5003;48659;41.622;2.276;2023-02-22T10:57:27;63;58;
62591;PMS5003;48659;41.622;2.276;2023-02-22T10:59:57;67;60;
62591;PMS5003;48659;41.622;2.276;2023-02-22T11:02:47;69;65;
62591;PMS5003;48659;41.622;2.276;2023-02-22T11:05:25;87;81;
62591;PMS5003;48659;41.622;2.276;2023-02-22T11:08:12;92;81;
62591;PMS5003;48659;41.622;2.276;2023-02-22T11:10:43;69;62;
62591;PMS5003;48659;41.622;2.276;2023-02-22T11:13:23;60;56;
62591;PMS5003;48659;41.622;2.276;2023-02-22T11:15:52;65;61;
62591;PMS5003;48659;41.622;2.276;2023-02-22T11:18:22;71;62;
62591;PMS5003;48659;41.622;2.276;2023-02-22T11:21:00;57;53;
62591;PMS5003;48659;41.622;2.276;2023-02-22T11:23:38;65;60;
62591;PMS5003;48659;41.622;2.276;2023-02-22T11:26:09;51;51;
62591;PMS5003;48659;41.622;2.276;2023-02-22T11:28:37;60;55;
62591;PMS5003;48659;41.622;2.276;2023-02-22T11:31:10;51;50;
62591;PMS5003;48659;41.622;2.276;2023-02-22T11:33:45;63;54;
62591;PMS5003;48659;41.622;2.276;2023-02-22T11:36:28;59;51;
62591;PMS5003;48659;41.622;2.276;2023-02-22T11:38:57;57;55;
62591;PMS5003;48659;41.622;2.276;2023-02-22T11:41:26;59;55;
62591;PMS5003;48659;41.622;2.276;2023-02-22T11:43:54;59;51;
62591;PMS5003;48659;41.622;2.276;2023-02-22T11:46:39;53;50;
62591;PMS5003;48659;41.622;2.276;2023-02-22T11:49:09;61;59;
62591;PMS5003;48659;41.622;2.276;2023-02-22T11:51:42;61;56;
62591;PMS5003;48659;41.622;2.276;2023-02-22T11:54:24;61;60;
62591;PMS5003;48659;41.622;2.276;2023-02-22T11:57:16;68;63;
62591;PMS5003;48659;41.622;2.276;2023-02-22T11:59:56;58;51;
62591;PMS5003;48659;41.622;2.276;2023-02-22T12:02:42;55;49;
62591;PMS5003;48659;41.622;2.276;2023-02-22T12:05:27;59;52;
62591;PMS5003;48659;41.622;2.276;2023-02-22T12:05:41;67;55;
62591;PMS5003;48659;41.622;2.276;2023-02-22T12:08:19;54;51;
62591;PMS5003;48659;41.622;2.276;2023-02-22T12:10:56;61;52;
62591;PMS5003;48659;41.622;2.276;2023-02-22T12:13:41;57;52;
62591;PMS5003;48659;41.622;2.276;2023-02-22T12:16:20;53;51;
62591;PMS5003;48659;41.622;2.276;2023-02-22T12:19:00;50;46;
62591;PMS5003;48659;41.622;2.276;2023-02-22T12:21:39;50;49;
62591;PMS5003;48659;41.622;2.276;2023-02-22T12:24:11;56;52;
62591;PMS5003;48659;41.622;2.276;2023-02-22T12:26:43;55;48;
62591;PMS5003;48659;41.622;2.276;2023-02-22T12:29:16;55;49;
62591;PMS5003;48659;41.622;2.276;2023-02-22T12:31:54;46;43;
62591;PMS5003;48659;41.622;2.276;2023-02-22T12:34:28;49;45;
62591;PMS5003;48659;41.622;2.276;2023-02-22T12:37:02;50;47;
62591;PMS5003;48659;41.622;2.276;2023-02-22T12:39:41;48;44;
62591;PMS5003;48659;41.622;2.276;2023-02-22T12:42:18;46;44;
62591;PMS5003;48659;41.622;2.276;2023-02-22T12:44:53;53;44;
62591;PMS5003;48659;41.622;2.276;2023-02-22T12:47:29;40;39;
62591;PMS5003;48659;41.622;2.276;2023-02-22T12:50:09;38;35;
62591;PMS5003;48659;41.622;2.276;2023-02-22T12:52:45;42;37;
62591;PMS5003;48659;41.622;2.276;2023-02-22T12:55:19;32;29;
62591;PMS5003;48659;41.622;2.276;2023-02-22T12:57:52;47;42;
62591;PMS5003;48659;41.622;2.276;2023-02-22T13:00:25;32;31;
62591;PMS5003;48659;41.622;2.276;2023-02-22T13:03:18;31;29;
62591;PMS5003;48659;41.622;2.276;2023-02-22T13:05:55;36;29;
62591;PMS5003;48659;41.622;2.276;2023-02-22T13:08:32;35;33;
62591;PMS5003;48659;41.622;2.276;2023-02-22T13:11:08;43;42;
62591;PMS5003;48659;41.622;2.276;2023-02-22T13:13:45;43;40;
62591;PMS5003;48659;41.622;2.276;2023-02-22T13:16:25;44;40;
62591;PMS5003;48659;41.622;2.276;2023-02-22T13:19:16;39;37;
62591;PMS5003;48659;41.622;2.276;2023-02-22T13:21:57;40;38;
62591;PMS5003;48659;41.622;2.276;2023-02-22T13:24:38;50;44;
62591;PMS5003;48659;41.622;2.276;2023-02-22T13:27:14;36;34;
62591;PMS5003;48659;41.622;2.276;2023-02-22T13:29:47;39;37;
62591;PMS5003;48659;41.622;2.276;2023-02-22T13:32:23;41;38;
62591;PMS5003;48659;41.622;2.276;2023-02-22T13:35:01;37;36;
62591;PMS5003;48659;41.622;2.276;2023-02-22T13:38:22;39;37;
62591;PMS5003;48659;41.622;2.276;2023-02-22T13:41:15;45;41;
62591;PMS5003;48659;41.622;2.276;2023-02-22T13:44:03;42;40;
62591;PMS5003;48659;41.622;2.276;2023-02-22T13:46:46;40;36;
62591;PMS5003;48659;41.622;2.276;2023-02-22T13:49:42;45;43;
62591;PMS5003;48659;41.622;2.276;2023-02-22T13:52:23;42;41;
62591;PMS5003;48659;41.622;2.276;2023-02-22T13:54:55;41;39;
62591;PMS5003;48659;41.622;2.276;2023-02-22T13:57:27;41;40;
62591;PMS5003;48659;41.622;2.276;2023-02-22T14:00:37;39;39;
62591;PMS5003;48659;41.622;2.276;2023-02-22T14:03:27;38;37;
62591;PMS5003;48659;41.622;2.276;2023-02-22T14:05:59;43;39;
62591;PMS5003;48659;41.622;2.276;2023-02-22T14:08:58;40;36;
62591;PMS5003;48659;41.622;2.276;2023-02-22T14:11:41;35;32;
62591;PMS5003;48659;41.622;2.276;2023-02-22T14:14:13;39;37;
62591;PMS5003;48659;41.622;2.276;2023-02-22T14:16:43;34;32;
62591;PMS5003;48659;41.622;2.276;2023-02-22T14:19:14;29;28;
62591;PMS5003;48659;41.622;2.276;2023-02-22T14:22:00;40;39;
62591;PMS5003;48659;41.622;2.276;2023-02-22T14:24:29;36;36;
62591;PMS5003;48659;41.622;2.276;2023-02-22T14:27:08;39;36;
62591;PMS5003;48659;41.622;2.276;2023-02-22T14:29:37;36;34;
62591;PMS5003;48659;41.622;2.276;2023-02-22T14:32:16;33;30;
62591;PMS5003;48659;41.622;2.276;2023-02-22T14:34:45;35;34;
62591;PMS5003;48659;41.622;2.276;2023-02-22T14:37:17;31;31;
62591;PMS5003;48659;41.622;2.276;2023-02-22T14:39:50;34;31;
62591;PMS5003;48659;41.622;2.276;2023-02-22T14:42:23;31;29;
62591;PMS5003;48659;41.622;2.276;2023-02-22T14:45:09;38;35;
62591;PMS5003;48659;41.622;2.276;2023-02-22T14:47:44;36;32;
62591;PMS5003;48659;41.622;2.276;2023-02-22T14:50:18;46;42;
62591;PMS5003;48659;41.622;2.276;2023-02-22T14:52:54;36;34;
62591;PMS5003;48659;41.622;2.276;2023-02-22T14:55:26;34;32;
62591;PMS5003;48659;41.622;2.276;2023-02-22T14:58:08;34;33;
62591;PMS5003;48659;41.622;2.276;2023-02-22T15:00:40;40;34;
62591;PMS5003;48659;41.622;2.276;2023-02-22T15:03:15;31;30;
62591;PMS5003;48659;41.622;2.276;2023-02-22T15:05:50;31;31;
62591;PMS5003;48659;41.622;2.276;2023-02-22T15:08:19;33;32;
62591;PMS5003;48659;41.622;2.276;2023-02-22T15:10:47;28;27;
62591;PMS5003;48659;41.622;2.276;2023-02-22T15:13:18;34;31;
62591;PMS5003;48659;41.622;2.276;2023-02-22T15:15:48;32;27;
62591;PMS5003;48659;41.622;2.276;2023-02-22T15:18:22;33;33;
62591;PMS5003;48659;41.622;2.276;2023-02-22T15:20:54;33;30;
62591;PMS5003;48659;41.622;2.276;2023-02-22T15:23:26;27;26;
62591;PMS5003;48659;41.622;2.276;2023-02-22T15:25:55;31;31;
62591;PMS5003;48659;41.622;2.276;2023-02-22T15:28:23;29;29;
62591;PMS5003;48659;41.622;2.276;2023-02-22T15:31:13;30;28;
62591;PMS5003;48659;41.622;2.276;2023-02-22T15:33:41;32;30;
62591;PMS5003;48659;41.622;2.276;2023-02-22T15:36:12;29;29;
62591;PMS5003;48659;41.622;2.276;2023-02-22T15:38:46;34;29;
62591;PMS5003;48659;41.622;2.276;2023-02-22T15:41:18;37;33;
62591;PMS5003;48659;41.622;2.276;2023-02-22T15:43:55;34;29;
62591;PMS5003;48659;41.622;2.276;2023-02-22T15:46:24;32;31;
62591;PMS5003;48659;41.622;2.276;2023-02-22T15:49:03;40;38;
62591;PMS5003;48659;41.622;2.276;2023-02-22T15:51:45;38;38;
62591;PMS5003;48659;41.622;2.276;2023-02-22T15:54:16;37;33;
62591;PMS5003;48659;41.622;2.276;2023-02-22T15:56:47;32;30;
62591;PMS5003;48659;41.622;2.276;2023-02-22T15:59:17;46;41;
62591;PMS5003;48659;41.622;2.276;2023-02-22T16:01:45;41;37;
62591;PMS5003;48659;41.622;2.276;2023-02-22T16:04:15;35;34;
62591;PMS5003;48659;41.622;2.276;2023-02-22T16:06:45;43;38;
62591;PMS5003;48659;41.622;2.276;2023-02-22T16:09:14;37;36;
62591;PMS5003;48659;41.622;2.276;2023-02-22T16:11:44;41;36;
62591;PMS5003;48659;41.622;2.276;2023-02-22T16:14:29;37;34;
62591;PMS5003;48659;41.622;2.276;2023-02-22T16:17:22;38;38;
62591;PMS5003;48659;41.622;2.276;2023-02-22T16:19:54;39;36;
62591;PMS5003;48659;41.622;2.276;2023-02-22T16:22:23;35;32;
62591;PMS5003;48659;41.622;2.276;2023-02-22T16:24:55;33;32;
62591;PMS5003;48659;41.622;2.276;2023-02-22T16:27:42;36;32;
62591;PMS5003;48659;41.622;2.276;2023-02-22T16:30:20;30;30;
62591;PMS5003;48659;41.622;2.276;2023-02-22T16:30:24;34;32;
62591;PMS5003;48659;41.622;2.276;2023-02-22T16:32:55;39;37;
62591;PMS5003;48659;41.622;2.276;2023-02-22T16:35:24;36;32;
62591;PMS5003;48659;41.622;2.276;2023-02-22T16:37:54;39;36;
62591;PMS5003;48659;41.622;2.276;2023-02-22T16:40:26;33;28;
62591;PMS5003;48659;41.622;2.276;2023-02-22T16:42:55;40;36;
62591;PMS5003;48659;41.622;2.276;2023-02-22T16:45:23;34;34;
62591;PMS5003;48659;41.622;2.276;2023-02-22T16:47:51;31;30;